Impacts METAR Board
IDs:

KSLC - Salt Lake City Intl, UT, US

Updated at: 0600 UTC 07 Dec 2022
Potential Impact None Slight Moderate High
Time 06/18Z 06/19Z 06/20Z 06/21Z 06/22Z 06/23Z 07/00Z 07/01Z 07/02Z 07/03Z 07/04Z 07/05Z 07/06Z
Temp29 30 34 35 36 35 32 31 32 32 32 32 32
Dewpt27 27 28 29 28 28 27 27 27 27 27 27 27
Altim30.11 30.10 30.10 30.10 30.10 30.11 30.11 30.12 30.14 30.15 30.16 30.18 30.18
VIS2.5 3 8 10 10 10 10 10 10 7 6 5 6
CIG7 8 9 65 65 80 -- -- 10 9 9 10 11
CoverBKNBKNBKNBKNBKNBKNFEWFEWBKNBKNOVCOVCOVC
FltCatIFRIFRIFRVFRVFRVFRVFRVFRMVFRIFRIFRMVFRMVFR
WXBRBR----------------BR BCFGBR BCFGBR BCFG
WDir0101010310330290290350340210800
WSpd0 4 4 6 5 5 6 3 6 4 3 3 0
WGst-- -- -- -- -- -- -- -- -- -- -- -- --
Raw hourly METARs
KSLC 061754Z 00000KT 2 1/2SM BR BKN007 BKN015 M02/M03 A3011 RMK AO2 SFC VIS 5 SLP209 4/001 I6008 T10171028 11017 21044 51007 $
KSLC 061854Z 01004KT 3SM BR BKN008 BKN020 M01/M03 A3010 RMK AO2 SFC VIS 6 SLP210 I1001 T10111028 $
KSLC 061954Z 01004KT 8SM BKN009 BKN025 BKN080 01/M02 A3010 RMK AO2 SLP207 T00111022
KSLC 062054Z 01006KT 10SM SCT014 BKN065 02/M02 A3010 RMK AO2 SLP205 I3001 T00171017 55003 VISNO NW RNWY $
KSLC 062154Z 31005KT 10SM SCT014 SCT030 BKN065 02/M02 A3010 RMK AO2 SLP204 T00221022
KSLC 062254Z 33005KT 10SM FEW014 FEW030 BKN080 BKN130 02/M02 A3011 RMK AO2 SLP209 T00171022
KSLC 062354Z 29006KT 10SM FEW020 FEW080 00/M03 A3011 RMK AO2 SLP214 4/001 I6001 T00001028 10028 21017 53004
KSLC 070054Z 29003KT 10SM FEW055 M01/M03 A3012 RMK AO2 SLP218 T10061028 $
KSLC 070154Z 35006KT 10SM BKN010 00/M03 A3014 RMK AO2 SLP223 T00001028 $
KSLC 070254Z 34004KT 7SM BKN009 00/M03 A3015 RMK AO2 SLP229 T00001028 53013 $
KSLC 070354Z 21003KT 6SM BR BCFG OVC009 00/M03 A3016 RMK AO2 SLP232 T00001028 $
KSLC 070454Z 08003KT 5SM BR BCFG OVC010 00/M03 A3018 RMK AO2 SLP235 T00001028 $
KSLC 070554Z 00000KT 6SM BR BCFG OVC011 00/M03 A3018 RMK AO2 SLP235 4/001 T00001028 10000 21006 51009 $



Page loaded:  06:59 UTC  |   10:59 PM Pacific  |   11:59 PM Mountain  |   12:59 AM Central  |   01:59 AM Eastern

 

ADVISORIES

FORECASTS

FORECASTS

OBSERVATIONS

USER TOOLS

ABOUT US